Tongaat, South Africa
Current Conditions -  °F | °C
As of 2:00 AM on Tuesday 23 Dec 2014 (Local Time) from FALE Reporting Station
Clear Clear  
Wind Chill: 68°   Ceiling: Unl
Heat Index: 68°   Visibility: 6mi
Dew Point: 64°   Wind: 8mph
Humidity: 88%   Direction: 40°NE
Pressure: 29.94"   Gusts: NA
Location:  29.58°S, 31.12°E
Report Text: FALE 230000Z 04007KT CAVOK 20/18 Q1014 NOSIG
Loading
Personal Weather Stations






























Interactive Weather Map New forecast layout! Learn more

10-Day Weather Forecast

Advertisements
Track Severe Weather on mobile